Weather at Inverkip airstrip [CLOSED]

Public forecast

Using degrees Celsius for public forecast. Weather courtesy of forecast.io.

Closest aviation weather report (METAR) to Inverkip airstrip

Closest report is Glasgow International Airport, 15.0 nm (27.7 km) E.

2024/05/22 22:50 (retrieved 14 minutes ago)

EGPF 222250Z AUTO 28009KT 8000 -RA FEW021/// BKN032/// //////TCU 12/11 Q1006

Closest aviation forecast (TAF) to Inverkip airstrip

Closest forecast is Glasgow International Airport, 15.0 nm (27.7 km) E.

2024/05/22 18:00 (retrieved 5 hours ago)

TAF EGPF 221659Z 2218/2318 31009KT 9999 SCT025 TEMPO 2218/2224 6000 RA PROB40 TEMPO 2218/2224 3000 +RA BKN008 PROB30 TEMPO 2218/2221 33015G25KT PROB40 TEMPO 2300/2315 7000 -RA BKN014 TEMPO 2315/2318 4000 RADZ BKN014